sensor_id;sensor_type;location;lat;lon;timestamp;pressure;altitude;pressure_sealevel;temperature;humidity
20444;BME280;10381;53.730;10.010;2022-08-21T00:02:32;101311.50;;;10.30;100.00
20444;BME280;10381;53.730;10.010;2022-08-21T00:06:32;101302.19;;;10.24;100.00
20444;BME280;10381;53.730;10.010;2022-08-21T00:10:33;101299.31;;;10.28;100.00
20444;BME280;10381;53.730;10.010;2022-08-21T00:14:34;101300.75;;;10.20;100.00
20444;BME280;10381;53.730;10.010;2022-08-21T00:18:34;101297.16;;;10.44;100.00
20444;BME280;10381;53.730;10.010;2022-08-21T00:22:35;101297.56;;;10.83;100.00
20444;BME280;10381;53.730;10.010;2022-08-21T00:26:36;101301.81;;;10.63;100.00
20444;BME280;10381;53.730;10.010;2022-08-21T00:30:37;101304.25;;;10.55;100.00
20444;BME280;10381;53.730;10.010;2022-08-21T00:34:37;101299.81;;;10.44;100.00
20444;BME280;10381;53.730;10.010;2022-08-21T00:38:37;101295.84;;;10.27;100.00
20444;BME280;10381;53.730;10.010;2022-08-21T00:42:38;101299.78;;;10.21;100.00
20444;BME280;10381;53.730;10.010;2022-08-21T00:46:40;101297.63;;;10.15;100.00
20444;BME280;10381;53.730;10.010;2022-08-21T00:50:46;101302.19;;;10.02;100.00
20444;BME280;10381;53.730;10.010;2022-08-21T00:54:49;101296.06;;;10.01;100.00
20444;BME280;10381;53.730;10.010;2022-08-21T00:58:51;101288.09;;;9.90;100.00
20444;BME280;10381;53.730;10.010;2022-08-21T01:02:52;101299.31;;;10.16;100.00
20444;BME280;10381;53.730;10.010;2022-08-21T01:06:53;101307.47;;;10.24;100.00
20444;BME280;10381;53.730;10.010;2022-08-21T01:10:55;101300.75;;;10.20;100.00
20444;BME280;10381;53.730;10.010;2022-08-21T01:14:56;101305.94;;;10.33;100.00
20444;BME280;10381;53.730;10.010;2022-08-21T01:18:58;101303.19;;;10.35;100.00
20444;BME280;10381;53.730;10.010;2022-08-21T01:22:59;101298.59;;;10.26;100.00
20444;BME280;10381;53.730;10.010;2022-08-21T01:27:00;101298.72;;;10.01;100.00
20444;BME280;10381;53.730;10.010;2022-08-21T01:31:01;101293.00;;;9.84;100.00
20444;BME280;10381;53.730;10.010;2022-08-21T01:35:03;101296.03;;;9.79;100.00
20444;BME280;10381;53.730;10.010;2022-08-21T01:39:04;101303.13;;;9.78;100.00
20444;BME280;10381;53.730;10.010;2022-08-21T01:43:05;101301.94;;;10.05;100.00
20444;BME280;10381;53.730;10.010;2022-08-21T01:47:12;101301.22;;;10.14;100.00
20444;BME280;10381;53.730;10.010;2022-08-21T01:51:13;101301.47;;;10.11;100.00
20444;BME280;10381;53.730;10.010;2022-08-21T01:55:15;101284.38;;;9.93;100.00
20444;BME280;10381;53.730;10.010;2022-08-21T01:59:16;101288.91;;;9.68;100.00
20444;BME280;10381;53.730;10.010;2022-08-21T02:03:17;101286.06;;;9.94;100.00
20444;BME280;10381;53.730;10.010;2022-08-21T02:07:17;101288.09;;;9.90;100.00
20444;BME280;10381;53.730;10.010;2022-08-21T02:11:19;101292.75;;;9.64;100.00
20444;BME280;10381;53.730;10.010;2022-08-21T02:15:19;101288.78;;;9.58;100.00
20444;BME280;10381;53.730;10.010;2022-08-21T02:19:20;101300.88;;;9.50;100.00
20444;BME280;10381;53.730;10.010;2022-08-21T02:23:20;101296.19;;;9.42;100.00
20444;BME280;10381;53.730;10.010;2022-08-21T02:27:22;101293.63;;;9.76;100.00
20444;BME280;10381;53.730;10.010;2022-08-21T02:31:23;101292.53;;;9.67;100.00
20444;BME280;10381;53.730;10.010;2022-08-21T02:35:25;101301.84;;;9.49;100.00
20444;BME280;10381;53.730;10.010;2022-08-21T02:39:25;101297.69;;;9.57;100.00
20444;BME280;10381;53.730;10.010;2022-08-21T02:43:27;101300.47;;;9.67;100.00
20444;BME280;10381;53.730;10.010;2022-08-21T02:47:27;101296.53;;;9.84;100.00
20444;BME280;10381;53.730;10.010;2022-08-21T02:51:27;101291.59;;;9.79;100.00
20444;BME280;10381;53.730;10.010;2022-08-21T02:55:31;101294.31;;;9.55;100.00
20444;BME280;10381;53.730;10.010;2022-08-21T02:59:31;101295.19;;;9.67;100.00
20444;BME280;10381;53.730;10.010;2022-08-21T03:03:32;101287.09;;;9.57;100.00
20444;BME280;10381;53.730;10.010;2022-08-21T03:07:34;101284.09;;;9.62;100.00
20444;BME280;10381;53.730;10.010;2022-08-21T03:11:34;101290.59;;;9.58;100.00
20444;BME280;10381;53.730;10.010;2022-08-21T03:15:37;101282.66;;;9.58;100.00
20444;BME280;10381;53.730;10.010;2022-08-21T03:19:39;101280.94;;;9.57;100.00
20444;BME280;10381;53.730;10.010;2022-08-21T03:23:40;101282.56;;;9.35;100.00
20444;BME280;10381;53.730;10.010;2022-08-21T03:27:41;101287.31;;;9.43;100.00
20444;BME280;10381;53.730;10.010;2022-08-21T03:31:42;101275.91;;;9.54;100.00
20444;BME280;10381;53.730;10.010;2022-08-21T03:35:43;101277.97;;;9.73;100.00
20444;BME280;10381;53.730;10.010;2022-08-21T03:39:44;101273.66;;;9.72;100.00
20444;BME280;10381;53.730;10.010;2022-08-21T03:43:45;101273.28;;;9.65;100.00
20444;BME280;10381;53.730;10.010;2022-08-21T03:47:52;101273.78;;;9.70;100.00
20444;BME280;10381;53.730;10.010;2022-08-21T03:51:53;101276.28;;;9.60;100.00
20444;BME280;10381;53.730;10.010;2022-08-21T03:55:54;101274.44;;;9.50;100.00
20444;BME280;10381;53.730;10.010;2022-08-21T03:59:54;101271.00;;;9.60;100.00
20444;BME280;10381;53.730;10.010;2022-08-21T04:03:55;101271.69;;;9.51;100.00
20444;BME280;10381;53.730;10.010;2022-08-21T04:07:57;101281.66;;;9.48;100.00
20444;BME280;10381;53.730;10.010;2022-08-21T04:11:58;101282.41;;;9.61;100.00
20444;BME280;10381;53.730;10.010;2022-08-21T04:15:59;101280.50;;;9.63;100.00
20444;BME280;10381;53.730;10.010;2022-08-21T04:19:59;101282.41;;;9.61;100.00
20444;BME280;10381;53.730;10.010;2022-08-21T04:24:00;101281.16;;;9.43;100.00
20444;BME280;10381;53.730;10.010;2022-08-21T04:28:00;101280.16;;;9.32;100.00
20444;BME280;10381;53.730;10.010;2022-08-21T04:32:02;101286.22;;;9.57;100.00
20444;BME280;10381;53.730;10.010;2022-08-21T04:36:03;101287.63;;;10.08;100.00
20444;BME280;10381;53.730;10.010;2022-08-21T04:40:04;101293.19;;;10.38;100.00
20444;BME280;10381;53.730;10.010;2022-08-21T04:44:05;101297.28;;;10.54;100.00
20444;BME280;10381;53.730;10.010;2022-08-21T04:48:08;101298.22;;;10.64;100.00
20444;BME280;10381;53.730;10.010;2022-08-21T04:52:09;101305.56;;;10.60;100.00
20444;BME280;10381;53.730;10.010;2022-08-21T04:56:22;101300.41;;;10.59;100.00
20444;BME280;10381;53.730;10.010;2022-08-21T05:00:24;101296.41;;;10.53;100.00
20444;BME280;10381;53.730;10.010;2022-08-21T05:04:27;101298.78;;;10.68;100.00
20444;BME280;10381;53.730;10.010;2022-08-21T05:08:28;101296.31;;;10.98;100.00
20444;BME280;10381;53.730;10.010;2022-08-21T05:12:30;101301.69;;;11.40;100.00
20444;BME280;10381;53.730;10.010;2022-08-21T05:16:31;101300.19;;;12.10;100.00
20444;BME280;10381;53.730;10.010;2022-08-21T05:20:32;101304.63;;;13.10;100.00
20444;BME280;10381;53.730;10.010;2022-08-21T05:24:34;101292.44;;;13.47;100.00
20444;BME280;10381;53.730;10.010;2022-08-21T05:28:35;101274.69;;;13.28;100.00
20444;BME280;10381;53.730;10.010;2022-08-21T05:32:35;101264.59;;;14.99;100.00
20444;BME280;10381;53.730;10.010;2022-08-21T05:36:36;101220.47;;;16.17;100.00
20444;BME280;10381;53.730;10.010;2022-08-21T05:40:36;101195.25;;;17.03;100.00
20444;BME280;10381;53.730;10.010;2022-08-21T05:44:37;101197.81;;;17.68;100.00
20444;BME280;10381;53.730;10.010;2022-08-21T05:48:37;101191.63;;;17.60;100.00
20444;BME280;10381;53.730;10.010;2022-08-21T05:52:37;101197.53;;;16.06;100.00
20444;BME280;10381;53.730;10.010;2022-08-21T05:56:37;101204.41;;;17.17;100.00
20444;BME280;10381;53.730;10.010;2022-08-21T06:00:38;101201.97;;;16.24;100.00
20444;BME280;10381;53.730;10.010;2022-08-21T06:04:39;101202.19;;;16.55;100.00
20444;BME280;10381;53.730;10.010;2022-08-21T06:08:39;101199.41;;;16.81;100.00
20444;BME280;10381;53.730;10.010;2022-08-21T06:12:40;101201.53;;;16.61;100.00
20444;BME280;10381;53.730;10.010;2022-08-21T06:16:40;101186.84;;;17.95;100.00
20444;BME280;10381;53.730;10.010;2022-08-21T06:20:41;101193.84;;;18.04;100.00
20444;BME280;10381;53.730;10.010;2022-08-21T06:24:41;101193.03;;;17.15;100.00
20444;BME280;10381;53.730;10.010;2022-08-21T06:28:42;101191.97;;;17.57;100.00
20444;BME280;10381;53.730;10.010;2022-08-21T06:32:42;101185.25;;;19.47;100.00
20444;BME280;10381;53.730;10.010;2022-08-21T06:36:43;101197.56;;;18.57;100.00
20444;BME280;10381;53.730;10.010;2022-08-21T06:40:43;101187.00;;;19.02;100.00
20444;BME280;10381;53.730;10.010;2022-08-21T06:44:44;101186.53;;;17.90;100.00
20444;BME280;10381;53.730;10.010;2022-08-21T06:48:44;101185.63;;;17.50;100.00
20444;BME280;10381;53.730;10.010;2022-08-21T06:52:45;101183.19;;;17.15;100.00
20444;BME280;10381;53.730;10.010;2022-08-21T06:56:45;101182.66;;;17.12;100.00
20444;BME280;10381;53.730;10.010;2022-08-21T07:00:49;101178.84;;;17.06;100.00
20444;BME280;10381;53.730;10.010;2022-08-21T07:04:49;101172.25;;;17.33;100.00
20444;BME280;10381;53.730;10.010;2022-08-21T07:08:50;101175.66;;;17.11;100.00
20444;BME280;10381;53.730;10.010;2022-08-21T07:12:51;101161.03;;;17.38;100.00
20444;BME280;10381;53.730;10.010;2022-08-21T07:16:53;101160.94;;;17.71;100.00
20444;BME280;10381;53.730;10.010;2022-08-21T07:20:54;101162.69;;;18.03;100.00
20444;BME280;10381;53.730;10.010;2022-08-21T07:24:55;101158.41;;;17.85;100.00
20444;BME280;10381;53.730;10.010;2022-08-21T07:28:55;101153.53;;;18.66;100.00
20444;BME280;10381;53.730;10.010;2022-08-21T07:32:56;101161.25;;;18.46;100.00
20444;BME280;10381;53.730;10.010;2022-08-21T07:36:57;101151.69;;;18.44;100.00
20444;BME280;10381;53.730;10.010;2022-08-21T07:41:00;101155.88;;;18.46;100.00
20444;BME280;10381;53.730;10.010;2022-08-21T07:45:01;101143.38;;;18.62;100.00
20444;BME280;10381;53.730;10.010;2022-08-21T07:49:01;101146.00;;;18.93;100.00
20444;BME280;10381;53.730;10.010;2022-08-21T07:53:02;101147.63;;;18.71;100.00
20444;BME280;10381;53.730;10.010;2022-08-21T07:57:02;101142.41;;;19.30;100.00
20444;BME280;10381;53.730;10.010;2022-08-21T08:01:05;101145.38;;;19.35;100.00
20444;BME280;10381;53.730;10.010;2022-08-21T08:05:08;101145.69;;;19.70;100.00
20444;BME280;10381;53.730;10.010;2022-08-21T08:09:09;101140.75;;;19.59;100.00
20444;BME280;10381;53.730;10.010;2022-08-21T08:13:09;101139.38;;;19.63;100.00
20444;BME280;10381;53.730;10.010;2022-08-21T08:17:10;101143.34;;;19.97;100.00
20444;BME280;10381;53.730;10.010;2022-08-21T08:21:11;101141.59;;;20.26;100.00
20444;BME280;10381;53.730;10.010;2022-08-21T08:25:13;101136.78;;;20.21;100.00
20444;BME280;10381;53.730;10.010;2022-08-21T08:29:14;101134.59;;;20.31;100.00
20444;BME280;10381;53.730;10.010;2022-08-21T08:33:15;101137.00;;;20.05;100.00
20444;BME280;10381;53.730;10.010;2022-08-21T08:37:15;101132.28;;;20.07;100.00
20444;BME280;10381;53.730;10.010;2022-08-21T08:41:19;101127.00;;;20.56;100.00
20444;BME280;10381;53.730;10.010;2022-08-21T08:45:22;101129.22;;;20.53;100.00
20444;BME280;10381;53.730;10.010;2022-08-21T08:53:34;101123.38;;;20.64;100.00
20444;BME280;10381;53.730;10.010;2022-08-21T08:57:37;101117.44;;;20.54;100.00
20444;BME280;10381;53.730;10.010;2022-08-21T09:01:39;101121.53;;;20.93;100.00
20444;BME280;10381;53.730;10.010;2022-08-21T09:05:47;101118.06;;;21.34;100.00
20444;BME280;10381;53.730;10.010;2022-08-21T09:10:10;101123.91;;;20.38;100.00
20444;BME280;10381;53.730;10.010;2022-08-21T09:14:26;101122.78;;;20.97;100.00
20444;BME280;10381;53.730;10.010;2022-08-21T09:27:15;101113.13;;;21.09;100.00
20444;BME280;10381;53.730;10.010;2022-08-21T09:35:25;101098.44;;;21.12;100.00
20444;BME280;10381;53.730;10.010;2022-08-21T09:39:32;101101.41;;;21.52;100.00
20444;BME280;10381;53.730;10.010;2022-08-21T09:43:33;101103.44;;;21.49;100.00
20444;BME280;10381;53.730;10.010;2022-08-21T09:47:33;101099.59;;;21.31;100.00
20444;BME280;10381;53.730;10.010;2022-08-21T09:51:35;101107.59;;;21.94;100.00
20444;BME280;10381;53.730;10.010;2022-08-21T09:55:49;101102.78;;;21.82;100.00
20444;BME280;10381;53.730;10.010;2022-08-21T10:00:24;101105.72;;;21.94;100.00
20444;BME280;10381;53.730;10.010;2022-08-21T10:08:29;101092.47;;;21.51;100.00
20444;BME280;10381;53.730;10.010;2022-08-21T10:12:46;101095.06;;;21.73;100.00
20444;BME280;10381;53.730;10.010;2022-08-21T10:21:04;101095.66;;;22.43;100.00
20444;BME280;10381;53.730;10.010;2022-08-21T10:29:57;101098.81;;;21.78;100.00
20444;BME280;10381;53.730;10.010;2022-08-21T10:51:23;101101.66;;;21.63;100.00
20444;BME280;10381;53.730;10.010;2022-08-21T10:55:35;101112.97;;;22.00;100.00
20444;BME280;10381;53.730;10.010;2022-08-21T11:00:04;101115.81;;;22.53;100.00
20444;BME280;10381;53.730;10.010;2022-08-21T11:04:16;101104.38;;;22.85;100.00
20444;BME280;10381;53.730;10.010;2022-08-21T11:08:23;101106.88;;;22.93;100.00
20444;BME280;10381;53.730;10.010;2022-08-21T11:12:30;101109.50;;;22.20;100.00
20444;BME280;10381;53.730;10.010;2022-08-21T11:16:41;101116.47;;;22.49;100.00
20444;BME280;10381;53.730;10.010;2022-08-21T11:25:19;101106.69;;;22.74;100.00
20444;BME280;10381;53.730;10.010;2022-08-21T11:29:26;101108.72;;;21.71;100.00
20444;BME280;10381;53.730;10.010;2022-08-21T11:37:44;101118.53;;;21.85;100.00
20444;BME280;10381;53.730;10.010;2022-08-21T11:41:57;101118.09;;;23.23;100.00
20444;BME280;10381;53.730;10.010;2022-08-21T11:50:26;101111.66;;;22.97;100.00
20444;BME280;10381;53.730;10.010;2022-08-21T11:54:31;101113.78;;;23.74;100.00
20444;BME280;10381;53.730;10.010;2022-08-21T11:58:40;101115.19;;;22.58;100.00
20444;BME280;10381;53.730;10.010;2022-08-21T12:02:45;101110.41;;;23.20;100.00
20444;BME280;10381;53.730;10.010;2022-08-21T12:06:48;101117.31;;;23.09;100.00
20444;BME280;10381;53.730;10.010;2022-08-21T12:28:02;101113.78;;;24.51;94.27
20444;BME280;10381;53.730;10.010;2022-08-21T12:36:18;101118.06;;;23.43;90.96
20444;BME280;10381;53.730;10.010;2022-08-21T12:40:31;101103.72;;;23.29;91.53
20444;BME280;10381;53.730;10.010;2022-08-21T12:44:55;101107.34;;;23.68;92.52
20444;BME280;10381;53.730;10.010;2022-08-21T12:49:23;101115.53;;;24.00;88.75
20444;BME280;10381;53.730;10.010;2022-08-21T12:53:30;101119.34;;;24.24;86.06
20444;BME280;10381;53.730;10.010;2022-08-21T12:57:35;101117.78;;;24.73;83.45
20444;BME280;10381;53.730;10.010;2022-08-21T13:01:38;101111.19;;;24.62;81.64
20444;BME280;10381;53.730;10.010;2022-08-21T13:05:40;101117.53;;;23.66;82.44
20444;BME280;10381;53.730;10.010;2022-08-21T13:09:46;101109.03;;;23.69;82.69
20444;BME280;10381;53.730;10.010;2022-08-21T13:13:51;101107.09;;;22.91;82.74
20444;BME280;10381;53.730;10.010;2022-08-21T13:17:53;101096.72;;;22.82;84.14
20444;BME280;10381;53.730;10.010;2022-08-21T13:21:53;101090.47;;;22.81;90.23
20444;BME280;10381;53.730;10.010;2022-08-21T13:25:54;101085.69;;;23.68;91.97
20444;BME280;10381;53.730;10.010;2022-08-21T13:34:03;101092.75;;;24.14;86.72
20444;BME280;10381;53.730;10.010;2022-08-21T13:38:04;101090.16;;;24.33;84.17
20444;BME280;10381;53.730;10.010;2022-08-21T13:42:10;101083.28;;;23.47;84.99
20444;BME280;10381;53.730;10.010;2022-08-21T13:46:13;101097.03;;;23.45;82.90
20444;BME280;10381;53.730;10.010;2022-08-21T13:50:16;101088.50;;;23.42;85.33
20444;BME280;10381;53.730;10.010;2022-08-21T13:54:34;101095.91;;;24.43;84.85
20444;BME280;10381;53.730;10.010;2022-08-21T13:58:54;101094.56;;;24.27;78.11
20444;BME280;10381;53.730;10.010;2022-08-21T14:03:02;101108.66;;;24.36;77.40
20444;BME280;10381;53.730;10.010;2022-08-21T14:07:15;101102.84;;;24.64;77.00
20444;BME280;10381;53.730;10.010;2022-08-21T14:11:17;101095.19;;;25.04;74.48
20444;BME280;10381;53.730;10.010;2022-08-21T14:15:24;101092.25;;;25.06;79.81
20444;BME280;10381;53.730;10.010;2022-08-21T14:19:48;101095.97;;;25.12;76.02
20444;BME280;10381;53.730;10.010;2022-08-21T14:23:47;101095.88;;;25.00;74.13
20444;BME280;10381;53.730;10.010;2022-08-21T14:27:53;101101.31;;;24.50;73.44
20444;BME280;10381;53.730;10.010;2022-08-21T14:31:56;101097.56;;;24.94;73.34
20444;BME280;10381;53.730;10.010;2022-08-21T14:35:58;101095.16;;;24.86;75.14
20444;BME280;10381;53.730;10.010;2022-08-21T14:39:58;101097.13;;;23.84;74.17
20444;BME280;10381;53.730;10.010;2022-08-21T14:43:59;101103.41;;;23.64;76.09
20444;BME280;10381;53.730;10.010;2022-08-21T14:47:59;101096.00;;;23.33;78.38
20444;BME280;10381;53.730;10.010;2022-08-21T14:52:00;101100.25;;;23.74;80.13
20444;BME280;10381;53.730;10.010;2022-08-21T14:56:00;101082.00;;;23.56;83.41
20444;BME280;10381;53.730;10.010;2022-08-21T15:00:07;101088.19;;;24.72;78.98
20444;BME280;10381;53.730;10.010;2022-08-21T15:04:09;101092.97;;;26.05;76.73
20444;BME280;10381;53.730;10.010;2022-08-21T15:08:09;101084.59;;;25.58;76.16
20444;BME280;10381;53.730;10.010;2022-08-21T15:12:12;101095.22;;;24.79;73.57
20444;BME280;10381;53.730;10.010;2022-08-21T15:16:13;101094.13;;;25.05;72.62
20444;BME280;10381;53.730;10.010;2022-08-21T15:20:13;101097.56;;;24.94;73.01
20444;BME280;10381;53.730;10.010;2022-08-21T15:24:14;101085.88;;;25.56;72.21
20444;BME280;10381;53.730;10.010;2022-08-21T15:28:15;101093.41;;;26.32;69.19
20444;BME280;10381;53.730;10.010;2022-08-21T15:32:20;101093.88;;;25.32;69.09
20444;BME280;10381;53.730;10.010;2022-08-21T15:36:22;101093.81;;;25.39;66.35
20444;BME280;10381;53.730;10.010;2022-08-21T15:40:23;101093.84;;;25.87;66.69
20444;BME280;10381;53.730;10.010;2022-08-21T15:44:25;101099.03;;;26.61;65.91
20444;BME280;10381;53.730;10.010;2022-08-21T15:48:26;101094.22;;;26.75;67.31
20444;BME280;10381;53.730;10.010;2022-08-21T15:52:26;101105.03;;;29.77;58.90
20444;BME280;10381;53.730;10.010;2022-08-21T15:56:33;101100.75;;;28.19;61.71
20444;BME280;10381;53.730;10.010;2022-08-21T16:00:35;101103.13;;;29.78;57.65
20444;BME280;10381;53.730;10.010;2022-08-21T16:04:36;101113.97;;;30.49;50.59
20444;BME280;10381;53.730;10.010;2022-08-21T16:08:36;101109.53;;;30.43;53.02
20444;BME280;10381;53.730;10.010;2022-08-21T16:12:42;101107.06;;;29.21;55.70
20444;BME280;10381;53.730;10.010;2022-08-21T16:16:43;101099.13;;;28.35;58.92
20444;BME280;10381;53.730;10.010;2022-08-21T16:20:44;101097.72;;;28.15;58.33
20444;BME280;10381;53.730;10.010;2022-08-21T16:24:44;101091.47;;;27.74;59.21
20444;BME280;10381;53.730;10.010;2022-08-21T16:28:54;101094.88;;;27.41;61.55
20444;BME280;10381;53.730;10.010;2022-08-21T16:32:56;101090.34;;;28.16;62.04
20444;BME280;10381;53.730;10.010;2022-08-21T16:36:56;101084.63;;;27.31;64.43
20444;BME280;10381;53.730;10.010;2022-08-21T16:40:58;101104.69;;;29.29;61.08
20444;BME280;10381;53.730;10.010;2022-08-21T16:44:59;101103.47;;;27.61;62.59
20444;BME280;10381;53.730;10.010;2022-08-21T16:48:59;101097.56;;;27.53;64.78
20444;BME280;10381;53.730;10.010;2022-08-21T16:53:00;101098.22;;;26.96;63.79
20444;BME280;10381;53.730;10.010;2022-08-21T16:57:01;101088.59;;;25.37;66.56
20444;BME280;10381;53.730;10.010;2022-08-21T17:01:07;101095.16;;;24.86;72.53
20444;BME280;10381;53.730;10.010;2022-08-21T17:05:09;101073.34;;;23.86;80.93
20444;BME280;10381;53.730;10.010;2022-08-21T17:09:11;101077.19;;;23.00;86.76
20444;BME280;10381;53.730;10.010;2022-08-21T17:13:12;101084.66;;;22.77;91.26
20444;BME280;10381;53.730;10.010;2022-08-21T17:17:13;101086.94;;;22.61;98.61
20444;BME280;10381;53.730;10.010;2022-08-21T17:21:14;101091.09;;;22.43;100.00
20444;BME280;10381;53.730;10.010;2022-08-21T17:25:15;101088.31;;;22.03;100.00
20444;BME280;10381;53.730;10.010;2022-08-21T17:29:17;101090.59;;;22.06;100.00
20444;BME280;10381;53.730;10.010;2022-08-21T17:33:19;101092.88;;;21.96;100.00
20444;BME280;10381;53.730;10.010;2022-08-21T17:37:20;101099.22;;;22.83;100.00
20444;BME280;10381;53.730;10.010;2022-08-21T17:41:21;101092.56;;;22.92;100.00
20444;BME280;10381;53.730;10.010;2022-08-21T17:45:21;101099.31;;;22.08;100.00
20444;BME280;10381;53.730;10.010;2022-08-21T17:49:22;101100.75;;;21.49;100.00
20444;BME280;10381;53.730;10.010;2022-08-21T17:53:22;101109.03;;;21.13;100.00
20444;BME280;10381;53.730;10.010;2022-08-21T17:57:23;101113.97;;;20.81;100.00
20444;BME280;10381;53.730;10.010;2022-08-21T18:01:31;101119.00;;;20.63;100.00
20444;BME280;10381;53.730;10.010;2022-08-21T18:05:32;101116.94;;;20.43;100.00
20444;BME280;10381;53.730;10.010;2022-08-21T18:09:32;101121.91;;;20.25;100.00
20444;BME280;10381;53.730;10.010;2022-08-21T18:13:35;101125.28;;;20.12;100.00
20444;BME280;10381;53.730;10.010;2022-08-21T18:17:36;101129.06;;;19.96;100.00
20444;BME280;10381;53.730;10.010;2022-08-21T18:21:37;101133.19;;;19.77;100.00
20444;BME280;10381;53.730;10.010;2022-08-21T18:25:38;101141.31;;;19.69;100.00
20444;BME280;10381;53.730;10.010;2022-08-21T18:29:39;101134.75;;;19.72;100.00
20444;BME280;10381;53.730;10.010;2022-08-21T18:33:40;101140.84;;;19.66;100.00
20444;BME280;10381;53.730;10.010;2022-08-21T18:37:41;101141.41;;;19.46;100.00
20444;BME280;10381;53.730;10.010;2022-08-21T18:41:43;101144.44;;;19.28;100.00
20444;BME280;10381;53.730;10.010;2022-08-21T18:45:44;101149.09;;;19.20;100.00
20444;BME280;10381;53.730;10.010;2022-08-21T18:49:44;101146.94;;;19.00;100.00
20444;BME280;10381;53.730;10.010;2022-08-21T18:53:45;101156.25;;;18.89;100.00
20444;BME280;10381;53.730;10.010;2022-08-21T18:57:46;101156.63;;;18.86;100.00
20444;BME280;10381;53.730;10.010;2022-08-21T19:01:46;101161.53;;;18.74;100.00
20444;BME280;10381;53.730;10.010;2022-08-21T19:05:47;101162.31;;;18.60;100.00
20444;BME280;10381;53.730;10.010;2022-08-21T19:09:48;101168.88;;;18.58;100.00
20444;BME280;10381;53.730;10.010;2022-08-21T19:13:49;101166.72;;;18.53;100.00
20444;BME280;10381;53.730;10.010;2022-08-21T19:17:50;101170.41;;;18.29;100.00
20444;BME280;10381;53.730;10.010;2022-08-21T19:21:51;101171.84;;;18.08;100.00
20444;BME280;10381;53.730;10.010;2022-08-21T19:25:52;101174.28;;;17.95;100.00
20444;BME280;10381;53.730;10.010;2022-08-21T19:29:57;101179.81;;;17.94;100.00
20444;BME280;10381;53.730;10.010;2022-08-21T19:38:04;101182.09;;;17.57;100.00
20444;BME280;10381;53.730;10.010;2022-08-21T19:42:05;101176.56;;;17.51;100.00
20444;BME280;10381;53.730;10.010;2022-08-21T19:46:05;101182.13;;;17.41;100.00
20444;BME280;10381;53.730;10.010;2022-08-21T19:50:07;101180.94;;;17.43;100.00
20444;BME280;10381;53.730;10.010;2022-08-21T19:54:14;101182.47;;;17.38;100.00
20444;BME280;10381;53.730;10.010;2022-08-21T20:02:28;101201.75;;;16.92;100.00
20444;BME280;10381;53.730;10.010;2022-08-21T20:06:28;101202.69;;;16.58;100.00
20444;BME280;10381;53.730;10.010;2022-08-21T20:10:29;101206.78;;;16.28;100.00
20444;BME280;10381;53.730;10.010;2022-08-21T20:14:31;101205.91;;;16.11;100.00
20444;BME280;10381;53.730;10.010;2022-08-21T20:18:32;101214.03;;;15.93;100.00
20444;BME280;10381;53.730;10.010;2022-08-21T20:22:33;101214.91;;;16.02;100.00
20444;BME280;10381;53.730;10.010;2022-08-21T20:26:34;101218.88;;;15.98;100.00
20444;BME280;10381;53.730;10.010;2022-08-21T20:30:34;101225.66;;;15.84;100.00
20444;BME280;10381;53.730;10.010;2022-08-21T20:34:35;101211.25;;;15.77;100.00
20444;BME280;10381;53.730;10.010;2022-08-21T20:38:35;101216.53;;;15.69;100.00
20444;BME280;10381;53.730;10.010;2022-08-21T20:42:37;101217.50;;;15.60;100.00
20444;BME280;10381;53.730;10.010;2022-08-21T20:46:38;101227.22;;;15.43;100.00
20444;BME280;10381;53.730;10.010;2022-08-21T20:50:44;101233.38;;;15.17;100.00
20444;BME280;10381;53.730;10.010;2022-08-21T20:54:54;101237.81;;;14.90;100.00
20444;BME280;10381;53.730;10.010;2022-08-21T20:59:02;101256.03;;;14.95;100.00
20444;BME280;10381;53.730;10.010;2022-08-21T21:03:16;101251.09;;;14.82;100.00
20444;BME280;10381;53.730;10.010;2022-08-21T21:07:39;101257.31;;;14.73;100.00
20444;BME280;10381;53.730;10.010;2022-08-21T21:11:52;101258.41;;;14.62;100.00
20444;BME280;10381;53.730;10.010;2022-08-21T21:15:57;101257.72;;;14.60;100.00
20444;BME280;10381;53.730;10.010;2022-08-21T21:20:06;101265.78;;;14.68;100.00
20444;BME280;10381;53.730;10.010;2022-08-21T21:24:15;101271.66;;;14.44;100.00
20444;BME280;10381;53.730;10.010;2022-08-21T21:28:21;101274.31;;;14.44;100.00
20444;BME280;10381;53.730;10.010;2022-08-21T21:32:26;101272.97;;;14.31;100.00
20444;BME280;10381;53.730;10.010;2022-08-21T21:36:42;101280.44;;;14.27;100.00
20444;BME280;10381;53.730;10.010;2022-08-21T21:40:52;101278.34;;;14.21;100.00
20444;BME280;10381;53.730;10.010;2022-08-21T21:54:13;101287.25;;;14.39;100.00
20444;BME280;10381;53.730;10.010;2022-08-21T22:02:45;101297.84;;;14.31;100.00
20444;BME280;10381;53.730;10.010;2022-08-21T22:07:08;101301.38;;;14.22;100.00
20444;BME280;10381;53.730;10.010;2022-08-21T22:11:25;101299.31;;;14.43;100.00
20444;BME280;10381;53.730;10.010;2022-08-21T22:15:28;101304.88;;;14.50;100.00
20444;BME280;10381;53.730;10.010;2022-08-21T22:19:32;101309.19;;;14.61;100.00
20444;BME280;10381;53.730;10.010;2022-08-21T22:23:39;101304.50;;;14.73;100.00
20444;BME280;10381;53.730;10.010;2022-08-21T22:27:41;101308.38;;;14.78;100.00
20444;BME280;10381;53.730;10.010;2022-08-21T22:31:42;101301.06;;;14.80;100.00